sensor_id;sensor_type;location;lat;lon;timestamp;temperature;humidity
12115;DHT22;6121;49.810;6.418;2023-03-19T00:02:12;8.60;99.90
12115;DHT22;6121;49.810;6.418;2023-03-19T00:04:38;8.70;99.90
12115;DHT22;6121;49.810;6.418;2023-03-19T00:07:04;8.70;99.90
12115;DHT22;6121;49.810;6.418;2023-03-19T00:09:30;8.80;99.90
12115;DHT22;6121;49.810;6.418;2023-03-19T00:11:56;8.50;99.90
12115;DHT22;6121;49.810;6.418;2023-03-19T00:14:23;8.40;99.90
12115;DHT22;6121;49.810;6.418;2023-03-19T00:16:49;8.10;99.90
12115;DHT22;6121;49.810;6.418;2023-03-19T00:19:15;8.10;99.90
12115;DHT22;6121;49.810;6.418;2023-03-19T00:21:41;8.30;99.90
12115;DHT22;6121;49.810;6.418;2023-03-19T00:24:07;8.30;99.90
12115;DHT22;6121;49.810;6.418;2023-03-19T00:26:35;8.40;99.90
12115;DHT22;6121;49.810;6.418;2023-03-19T00:29:02;8.40;99.90
12115;DHT22;6121;49.810;6.418;2023-03-19T00:31:29;8.10;99.90
12115;DHT22;6121;49.810;6.418;2023-03-19T00:33:59;7.90;99.90
12115;DHT22;6121;49.810;6.418;2023-03-19T00:36:26;8.00;99.90
12115;DHT22;6121;49.810;6.418;2023-03-19T00:38:53;8.20;99.90
12115;DHT22;6121;49.810;6.418;2023-03-19T00:41:20;7.90;99.90
12115;DHT22;6121;49.810;6.418;2023-03-19T00:43:46;8.10;99.90
12115;DHT22;6121;49.810;6.418;2023-03-19T00:46:13;8.20;99.90
12115;DHT22;6121;49.810;6.418;2023-03-19T00:48:42;8.20;99.90
12115;DHT22;6121;49.810;6.418;2023-03-19T00:51:09;8.40;99.90
12115;DHT22;6121;49.810;6.418;2023-03-19T00:53:40;8.10;99.90
12115;DHT22;6121;49.810;6.418;2023-03-19T00:56:08;8.10;99.90
12115;DHT22;6121;49.810;6.418;2023-03-19T00:58:35;8.10;99.90
12115;DHT22;6121;49.810;6.418;2023-03-19T01:01:04;7.90;99.90
12115;DHT22;6121;49.810;6.418;2023-03-19T01:03:30;8.00;99.90
12115;DHT22;6121;49.810;6.418;2023-03-19T01:05:59;7.50;99.90
12115;DHT22;6121;49.810;6.418;2023-03-19T01:08:25;7.50;99.90
12115;DHT22;6121;49.810;6.418;2023-03-19T01:10:52;7.70;99.90
12115;DHT22;6121;49.810;6.418;2023-03-19T01:13:18;7.80;99.90
12115;DHT22;6121;49.810;6.418;2023-03-19T01:15:43;7.80;99.90
12115;DHT22;6121;49.810;6.418;2023-03-19T01:18:11;7.30;99.90
12115;DHT22;6121;49.810;6.418;2023-03-19T01:20:38;7.50;99.90
12115;DHT22;6121;49.810;6.418;2023-03-19T01:23:05;7.60;99.90
12115;DHT22;6121;49.810;6.418;2023-03-19T01:25:32;7.70;99.90
12115;DHT22;6121;49.810;6.418;2023-03-19T01:28:01;7.70;99.90
12115;DHT22;6121;49.810;6.418;2023-03-19T01:30:28;7.40;99.90
12115;DHT22;6121;49.810;6.418;2023-03-19T01:32:59;7.30;99.90
12115;DHT22;6121;49.810;6.418;2023-03-19T01:35:40;7.30;99.90
12115;DHT22;6121;49.810;6.418;2023-03-19T01:38:08;7.40;99.90
12115;DHT22;6121;49.810;6.418;2023-03-19T01:40:34;7.20;99.90
12115;DHT22;6121;49.810;6.418;2023-03-19T01:43:19;7.40;99.90
12115;DHT22;6121;49.810;6.418;2023-03-19T01:45:52;7.60;99.90
12115;DHT22;6121;49.810;6.418;2023-03-19T01:48:45;7.70;99.90
12115;DHT22;6121;49.810;6.418;2023-03-19T01:51:17;7.50;99.90
12115;DHT22;6121;49.810;6.418;2023-03-19T01:54:02;7.30;99.90
12115;DHT22;6121;49.810;6.418;2023-03-19T01:56:51;7.00;99.90
12115;DHT22;6121;49.810;6.418;2023-03-19T01:59:30;7.30;99.90
12115;DHT22;6121;49.810;6.418;2023-03-19T02:04:44;7.40;99.90
12115;DHT22;6121;49.810;6.418;2023-03-19T02:07:13;7.50;99.90
12115;DHT22;6121;49.810;6.418;2023-03-19T02:09:39;7.60;99.90
12115;DHT22;6121;49.810;6.418;2023-03-19T02:12:08;7.30;99.90
12115;DHT22;6121;49.810;6.418;2023-03-19T02:14:34;7.20;99.90
12115;DHT22;6121;49.810;6.418;2023-03-19T02:17:00;7.30;99.90
12115;DHT22;6121;49.810;6.418;2023-03-19T02:19:38;7.40;99.90
12115;DHT22;6121;49.810;6.418;2023-03-19T02:22:05;7.30;99.90
12115;DHT22;6121;49.810;6.418;2023-03-19T02:24:50;7.20;99.90
12115;DHT22;6121;49.810;6.418;2023-03-19T02:27:19;7.00;99.90
12115;DHT22;6121;49.810;6.418;2023-03-19T02:29:47;7.10;99.90
12115;DHT22;6121;49.810;6.418;2023-03-19T02:32:14;7.30;99.90
12115;DHT22;6121;49.810;6.418;2023-03-19T02:34:41;7.40;99.90
12115;DHT22;6121;49.810;6.418;2023-03-19T02:37:24;7.50;99.90
12115;DHT22;6121;49.810;6.418;2023-03-19T02:39:56;7.30;99.90
12115;DHT22;6121;49.810;6.418;2023-03-19T02:42:27;7.20;99.90
12115;DHT22;6121;49.810;6.418;2023-03-19T02:44:53;7.30;99.90
12115;DHT22;6121;49.810;6.418;2023-03-19T02:47:19;7.20;99.90
12115;DHT22;6121;49.810;6.418;2023-03-19T02:49:44;7.00;99.90
12115;DHT22;6121;49.810;6.418;2023-03-19T02:52:11;7.30;99.90
12115;DHT22;6121;49.810;6.418;2023-03-19T02:54:37;7.30;99.90
12115;DHT22;6121;49.810;6.418;2023-03-19T02:57:03;7.30;99.90
12115;DHT22;6121;49.810;6.418;2023-03-19T02:59:30;7.10;99.90
12115;DHT22;6121;49.810;6.418;2023-03-19T03:01:56;7.00;99.90
12115;DHT22;6121;49.810;6.418;2023-03-19T03:04:22;6.90;99.90
12115;DHT22;6121;49.810;6.418;2023-03-19T03:06:48;6.90;99.90
12115;DHT22;6121;49.810;6.418;2023-03-19T03:09:14;6.90;99.90
12115;DHT22;6121;49.810;6.418;2023-03-19T03:11:39;7.00;99.90
12115;DHT22;6121;49.810;6.418;2023-03-19T03:14:08;7.00;99.90
12115;DHT22;6121;49.810;6.418;2023-03-19T03:16:34;6.80;99.90
12115;DHT22;6121;49.810;6.418;2023-03-19T03:19:00;6.60;99.90
12115;DHT22;6121;49.810;6.418;2023-03-19T03:21:27;6.50;99.90
12115;DHT22;6121;49.810;6.418;2023-03-19T03:23:54;6.70;99.90
12115;DHT22;6121;49.810;6.418;2023-03-19T03:26:20;6.70;99.90
12115;DHT22;6121;49.810;6.418;2023-03-19T03:28:46;6.80;99.90
12115;DHT22;6121;49.810;6.418;2023-03-19T03:31:13;6.60;99.90
12115;DHT22;6121;49.810;6.418;2023-03-19T03:33:39;6.60;99.90
12115;DHT22;6121;49.810;6.418;2023-03-19T03:36:05;6.60;99.90
12115;DHT22;6121;49.810;6.418;2023-03-19T03:38:31;6.80;99.90
12115;DHT22;6121;49.810;6.418;2023-03-19T03:40:58;6.90;99.90
12115;DHT22;6121;49.810;6.418;2023-03-19T03:43:25;6.90;99.90
12115;DHT22;6121;49.810;6.418;2023-03-19T03:45:52;7.00;99.90
12115;DHT22;6121;49.810;6.418;2023-03-19T03:48:19;7.10;99.90
12115;DHT22;6121;49.810;6.418;2023-03-19T03:50:45;7.10;99.90
12115;DHT22;6121;49.810;6.418;2023-03-19T03:53:15;7.10;99.90
12115;DHT22;6121;49.810;6.418;2023-03-19T03:55:42;7.00;99.90
12115;DHT22;6121;49.810;6.418;2023-03-19T03:58:08;7.00;99.90
12115;DHT22;6121;49.810;6.418;2023-03-19T04:00:33;6.90;99.90
12115;DHT22;6121;49.810;6.418;2023-03-19T04:03:00;6.90;99.90
12115;DHT22;6121;49.810;6.418;2023-03-19T04:05:27;6.90;99.90
12115;DHT22;6121;49.810;6.418;2023-03-19T04:07:53;7.00;99.90
12115;DHT22;6121;49.810;6.418;2023-03-19T04:10:19;7.10;99.90
12115;DHT22;6121;49.810;6.418;2023-03-19T04:12:46;7.10;99.90
12115;DHT22;6121;49.810;6.418;2023-03-19T04:15:12;6.90;99.90
12115;DHT22;6121;49.810;6.418;2023-03-19T04:17:40;7.00;99.90
12115;DHT22;6121;49.810;6.418;2023-03-19T04:20:08;6.70;99.90
12115;DHT22;6121;49.810;6.418;2023-03-19T04:22:35;6.60;99.90
12115;DHT22;6121;49.810;6.418;2023-03-19T04:25:02;6.70;99.90
12115;DHT22;6121;49.810;6.418;2023-03-19T04:27:28;6.60;99.90
12115;DHT22;6121;49.810;6.418;2023-03-19T04:29:53;6.60;99.90
12115;DHT22;6121;49.810;6.418;2023-03-19T04:32:20;6.60;99.90
12115;DHT22;6121;49.810;6.418;2023-03-19T04:34:45;6.70;99.90
12115;DHT22;6121;49.810;6.418;2023-03-19T04:37:12;6.50;99.90
12115;DHT22;6121;49.810;6.418;2023-03-19T04:39:45;6.60;99.90
12115;DHT22;6121;49.810;6.418;2023-03-19T04:42:12;6.60;99.90
12115;DHT22;6121;49.810;6.418;2023-03-19T04:44:47;6.70;99.90
12115;DHT22;6121;49.810;6.418;2023-03-19T04:47:15;6.90;99.90
12115;DHT22;6121;49.810;6.418;2023-03-19T04:49:51;6.90;99.90
12115;DHT22;6121;49.810;6.418;2023-03-19T04:52:18;6.90;99.90
12115;DHT22;6121;49.810;6.418;2023-03-19T04:54:44;6.90;99.90
12115;DHT22;6121;49.810;6.418;2023-03-19T04:57:10;6.90;99.90
12115;DHT22;6121;49.810;6.418;2023-03-19T04:59:39;6.80;99.90
12115;DHT22;6121;49.810;6.418;2023-03-19T05:02:06;6.90;99.90
12115;DHT22;6121;49.810;6.418;2023-03-19T05:04:34;6.90;99.90
12115;DHT22;6121;49.810;6.418;2023-03-19T05:07:05;6.80;99.90
12115;DHT22;6121;49.810;6.418;2023-03-19T05:09:32;6.70;99.90
12115;DHT22;6121;49.810;6.418;2023-03-19T05:11:58;6.70;99.90
12115;DHT22;6121;49.810;6.418;2023-03-19T05:14:24;6.70;99.90
12115;DHT22;6121;49.810;6.418;2023-03-19T05:17:11;6.70;99.90
12115;DHT22;6121;49.810;6.418;2023-03-19T05:19:50;6.60;99.90
12115;DHT22;6121;49.810;6.418;2023-03-19T05:22:19;6.50;99.90
12115;DHT22;6121;49.810;6.418;2023-03-19T05:24:45;6.70;99.90
12115;DHT22;6121;49.810;6.418;2023-03-19T05:27:12;6.60;99.90
12115;DHT22;6121;49.810;6.418;2023-03-19T05:29:56;6.70;99.90
12115;DHT22;6121;49.810;6.418;2023-03-19T05:32:36;6.80;99.90
12115;DHT22;6121;49.810;6.418;2023-03-19T05:35:04;6.80;99.90
12115;DHT22;6121;49.810;6.418;2023-03-19T05:37:51;6.80;99.90
12115;DHT22;6121;49.810;6.418;2023-03-19T05:40:17;6.90;99.90
12115;DHT22;6121;49.810;6.418;2023-03-19T05:42:45;6.90;99.90
12115;DHT22;6121;49.810;6.418;2023-03-19T05:45:13;7.00;99.90
12115;DHT22;6121;49.810;6.418;2023-03-19T05:47:46;7.10;99.90
12115;DHT22;6121;49.810;6.418;2023-03-19T05:50:13;7.00;99.90
12115;DHT22;6121;49.810;6.418;2023-03-19T05:52:48;7.10;99.90
12115;DHT22;6121;49.810;6.418;2023-03-19T05:55:14;7.20;99.90
12115;DHT22;6121;49.810;6.418;2023-03-19T05:57:44;7.10;99.90
12115;DHT22;6121;49.810;6.418;2023-03-19T06:00:16;7.20;99.90
12115;DHT22;6121;49.810;6.418;2023-03-19T06:02:45;7.20;99.90
12115;DHT22;6121;49.810;6.418;2023-03-19T06:05:22;7.20;99.90
12115;DHT22;6121;49.810;6.418;2023-03-19T06:07:51;7.30;99.90
12115;DHT22;6121;49.810;6.418;2023-03-19T06:10:28;7.30;99.90
12115;DHT22;6121;49.810;6.418;2023-03-19T06:12:56;7.40;99.90
12115;DHT22;6121;49.810;6.418;2023-03-19T06:15:35;7.50;99.90
12115;DHT22;6121;49.810;6.418;2023-03-19T06:18:22;7.60;99.90
12115;DHT22;6121;49.810;6.418;2023-03-19T06:20:48;7.60;99.90
12115;DHT22;6121;49.810;6.418;2023-03-19T06:23:16;7.50;99.90
12115;DHT22;6121;49.810;6.418;2023-03-19T06:25:42;7.50;99.90
12115;DHT22;6121;49.810;6.418;2023-03-19T06:28:07;7.60;99.90
12115;DHT22;6121;49.810;6.418;2023-03-19T06:30:38;7.70;99.90
12115;DHT22;6121;49.810;6.418;2023-03-19T06:33:18;7.70;99.90
12115;DHT22;6121;49.810;6.418;2023-03-19T06:35:44;7.60;99.90
12115;DHT22;6121;49.810;6.418;2023-03-19T06:38:11;7.70;99.90
12115;DHT22;6121;49.810;6.418;2023-03-19T06:40:37;7.70;99.90
12115;DHT22;6121;49.810;6.418;2023-03-19T06:43:03;7.80;99.90
12115;DHT22;6121;49.810;6.418;2023-03-19T06:45:29;7.80;99.90
12115;DHT22;6121;49.810;6.418;2023-03-19T06:47:55;7.80;99.90
12115;DHT22;6121;49.810;6.418;2023-03-19T06:50:22;7.90;99.90
12115;DHT22;6121;49.810;6.418;2023-03-19T06:52:48;7.80;99.90
12115;DHT22;6121;49.810;6.418;2023-03-19T06:55:14;7.70;99.90
12115;DHT22;6121;49.810;6.418;2023-03-19T06:57:40;7.80;99.90
12115;DHT22;6121;49.810;6.418;2023-03-19T07:00:06;7.80;99.90
12115;DHT22;6121;49.810;6.418;2023-03-19T07:02:34;7.90;99.90
12115;DHT22;6121;49.810;6.418;2023-03-19T07:05:01;8.00;99.90
12115;DHT22;6121;49.810;6.418;2023-03-19T07:07:27;7.90;99.90
12115;DHT22;6121;49.810;6.418;2023-03-19T07:09:53;8.00;99.90
12115;DHT22;6121;49.810;6.418;2023-03-19T07:12:18;8.20;99.90
12115;DHT22;6121;49.810;6.418;2023-03-19T07:14:44;8.20;99.90
12115;DHT22;6121;49.810;6.418;2023-03-19T07:17:10;8.30;99.90
12115;DHT22;6121;49.810;6.418;2023-03-19T07:19:36;8.30;99.90
12115;DHT22;6121;49.810;6.418;2023-03-19T07:22:02;8.20;99.90
12115;DHT22;6121;49.810;6.418;2023-03-19T07:24:28;8.30;99.90
12115;DHT22;6121;49.810;6.418;2023-03-19T07:26:54;8.30;99.90
12115;DHT22;6121;49.810;6.418;2023-03-19T07:29:20;8.20;99.90
12115;DHT22;6121;49.810;6.418;2023-03-19T07:31:46;8.20;99.90
12115;DHT22;6121;49.810;6.418;2023-03-19T07:34:12;8.30;99.90
12115;DHT22;6121;49.810;6.418;2023-03-19T07:36:38;8.40;99.90
12115;DHT22;6121;49.810;6.418;2023-03-19T07:39:04;8.40;99.90
12115;DHT22;6121;49.810;6.418;2023-03-19T07:41:30;8.40;99.90
12115;DHT22;6121;49.810;6.418;2023-03-19T07:43:57;8.40;99.90
12115;DHT22;6121;49.810;6.418;2023-03-19T07:46:23;8.50;99.90
12115;DHT22;6121;49.810;6.418;2023-03-19T07:48:48;8.60;99.90
12115;DHT22;6121;49.810;6.418;2023-03-19T07:51:15;8.60;99.90
12115;DHT22;6121;49.810;6.418;2023-03-19T07:53:40;8.60;99.90
12115;DHT22;6121;49.810;6.418;2023-03-19T07:56:06;8.60;99.90
12115;DHT22;6121;49.810;6.418;2023-03-19T07:58:32;8.60;99.90
12115;DHT22;6121;49.810;6.418;2023-03-19T08:00:58;8.70;99.90
12115;DHT22;6121;49.810;6.418;2023-03-19T08:03:24;8.80;99.90
12115;DHT22;6121;49.810;6.418;2023-03-19T08:05:49;8.90;99.90
12115;DHT22;6121;49.810;6.418;2023-03-19T08:08:17;9.00;99.90
12115;DHT22;6121;49.810;6.418;2023-03-19T08:10:44;9.00;99.90
12115;DHT22;6121;49.810;6.418;2023-03-19T08:13:10;9.20;99.90
12115;DHT22;6121;49.810;6.418;2023-03-19T08:15:35;9.30;99.90
12115;DHT22;6121;49.810;6.418;2023-03-19T08:18:03;9.20;99.90
12115;DHT22;6121;49.810;6.418;2023-03-19T08:20:29;9.20;99.90
12115;DHT22;6121;49.810;6.418;2023-03-19T08:22:56;9.40;99.90
12115;DHT22;6121;49.810;6.418;2023-03-19T08:25:22;9.50;99.90
12115;DHT22;6121;49.810;6.418;2023-03-19T08:27:49;9.70;99.90
12115;DHT22;6121;49.810;6.418;2023-03-19T08:30:16;9.80;99.90
12115;DHT22;6121;49.810;6.418;2023-03-19T08:32:42;10.10;99.90
12115;DHT22;6121;49.810;6.418;2023-03-19T08:35:09;10.20;99.90
12115;DHT22;6121;49.810;6.418;2023-03-19T08:37:36;10.10;99.90
12115;DHT22;6121;49.810;6.418;2023-03-19T08:40:02;10.20;99.90
12115;DHT22;6121;49.810;6.418;2023-03-19T08:42:29;10.20;99.90
12115;DHT22;6121;49.810;6.418;2023-03-19T08:44:55;10.20;99.90
12115;DHT22;6121;49.810;6.418;2023-03-19T08:47:21;10.30;99.90
12115;DHT22;6121;49.810;6.418;2023-03-19T08:49:49;10.40;99.90
12115;DHT22;6121;49.810;6.418;2023-03-19T08:52:18;10.50;99.90
12115;DHT22;6121;49.810;6.418;2023-03-19T08:54:44;10.50;99.90
12115;DHT22;6121;49.810;6.418;2023-03-19T08:57:10;10.50;99.90
12115;DHT22;6121;49.810;6.418;2023-03-19T08:59:36;10.50;99.90
12115;DHT22;6121;49.810;6.418;2023-03-19T09:02:02;10.60;99.90
12115;DHT22;6121;49.810;6.418;2023-03-19T09:04:28;10.60;99.90
12115;DHT22;6121;49.810;6.418;2023-03-19T09:06:54;10.50;99.90
12115;DHT22;6121;49.810;6.418;2023-03-19T09:09:22;10.60;99.90
12115;DHT22;6121;49.810;6.418;2023-03-19T09:11:48;10.70;99.90
12115;DHT22;6121;49.810;6.418;2023-03-19T09:14:15;10.70;99.90
12115;DHT22;6121;49.810;6.418;2023-03-19T09:16:42;10.70;99.90
12115;DHT22;6121;49.810;6.418;2023-03-19T09:19:09;10.70;99.90
12115;DHT22;6121;49.810;6.418;2023-03-19T09:21:35;10.80;99.90
12115;DHT22;6121;49.810;6.418;2023-03-19T09:24:02;10.90;99.90
12115;DHT22;6121;49.810;6.418;2023-03-19T09:26:29;11.10;99.90
12115;DHT22;6121;49.810;6.418;2023-03-19T09:28:55;11.10;99.90
12115;DHT22;6121;49.810;6.418;2023-03-19T09:31:22;11.30;99.90
12115;DHT22;6121;49.810;6.418;2023-03-19T09:33:48;11.60;99.90
12115;DHT22;6121;49.810;6.418;2023-03-19T09:36:15;11.90;99.90
12115;DHT22;6121;49.810;6.418;2023-03-19T09:38:41;11.90;99.90
12115;DHT22;6121;49.810;6.418;2023-03-19T09:46:53;11.70;99.90
12115;DHT22;6121;49.810;6.418;2023-03-19T09:49:35;11.90;99.90
12115;DHT22;6121;49.810;6.418;2023-03-19T09:55:01;11.70;99.90
12115;DHT22;6121;49.810;6.418;2023-03-19T09:57:29;11.60;99.90
12115;DHT22;6121;49.810;6.418;2023-03-19T09:59:57;11.90;99.90
12115;DHT22;6121;49.810;6.418;2023-03-19T10:02:42;12.40;99.90
12115;DHT22;6121;49.810;6.418;2023-03-19T10:05:49;13.10;99.90
12115;DHT22;6121;49.810;6.418;2023-03-19T10:11:29;13.10;99.90
12115;DHT22;6121;49.810;6.418;2023-03-19T10:16:44;13.20;99.90
12115;DHT22;6121;49.810;6.418;2023-03-19T10:19:14;13.00;99.90
12115;DHT22;6121;49.810;6.418;2023-03-19T10:21:47;13.00;99.90
12115;DHT22;6121;49.810;6.418;2023-03-19T10:24:38;13.20;99.90
12115;DHT22;6121;49.810;6.418;2023-03-19T10:27:17;12.90;99.90
12115;DHT22;6121;49.810;6.418;2023-03-19T10:29:46;13.00;99.90
12115;DHT22;6121;49.810;6.418;2023-03-19T10:32:19;12.70;99.90
12115;DHT22;6121;49.810;6.418;2023-03-19T10:34:49;12.70;99.90
12115;DHT22;6121;49.810;6.418;2023-03-19T10:37:18;12.50;99.90
12115;DHT22;6121;49.810;6.418;2023-03-19T10:39:49;12.60;99.90
12115;DHT22;6121;49.810;6.418;2023-03-19T10:44:52;12.50;99.90
12115;DHT22;6121;49.810;6.418;2023-03-19T10:47:24;12.50;99.90
12115;DHT22;6121;49.810;6.418;2023-03-19T10:49:50;12.50;99.90
12115;DHT22;6121;49.810;6.418;2023-03-19T10:52:27;12.60;99.90
12115;DHT22;6121;49.810;6.418;2023-03-19T10:55:00;12.40;99.90
12115;DHT22;6121;49.810;6.418;2023-03-19T10:57:28;12.40;99.90
12115;DHT22;6121;49.810;6.418;2023-03-19T11:00:01;12.60;99.90
12115;DHT22;6121;49.810;6.418;2023-03-19T11:02:29;12.90;99.90
12115;DHT22;6121;49.810;6.418;2023-03-19T11:07:38;13.30;99.90
12115;DHT22;6121;49.810;6.418;2023-03-19T11:10:12;13.50;99.90
12115;DHT22;6121;49.810;6.418;2023-03-19T11:12:39;13.70;99.90
12115;DHT22;6121;49.810;6.418;2023-03-19T11:15:20;13.80;99.90
12115;DHT22;6121;49.810;6.418;2023-03-19T11:17:49;14.00;99.90
12115;DHT22;6121;49.810;6.418;2023-03-19T11:22:50;13.80;99.90
12115;DHT22;6121;49.810;6.418;2023-03-19T11:25:35;13.30;99.90
12115;DHT22;6121;49.810;6.418;2023-03-19T11:28:23;13.30;99.90
12115;DHT22;6121;49.810;6.418;2023-03-19T11:31:11;13.50;99.90
12115;DHT22;6121;49.810;6.418;2023-03-19T11:37:07;14.20;99.90
12115;DHT22;6121;49.810;6.418;2023-03-19T11:40:22;13.90;99.90
12115;DHT22;6121;49.810;6.418;2023-03-19T11:51:31;13.20;99.90
12115;DHT22;6121;49.810;6.418;2023-03-19T11:54:10;12.90;99.90
12115;DHT22;6121;49.810;6.418;2023-03-19T11:56:59;13.00;99.90
12115;DHT22;6121;49.810;6.418;2023-03-19T12:02:50;13.10;99.90
12115;DHT22;6121;49.810;6.418;2023-03-19T12:05:28;13.10;99.90
12115;DHT22;6121;49.810;6.418;2023-03-19T12:08:16;13.10;99.90
12115;DHT22;6121;49.810;6.418;2023-03-19T12:21:39;13.10;99.90
12115;DHT22;6121;49.810;6.418;2023-03-19T12:24:26;13.10;99.90
12115;DHT22;6121;49.810;6.418;2023-03-19T12:32:32;13.40;99.90
12115;DHT22;6121;49.810;6.418;2023-03-19T12:35:10;13.60;99.90
12115;DHT22;6121;49.810;6.418;2023-03-19T12:37:43;13.30;99.90
12115;DHT22;6121;49.810;6.418;2023-03-19T12:40:12;13.20;99.90
12115;DHT22;6121;49.810;6.418;2023-03-19T12:42:41;13.30;99.90
12115;DHT22;6121;49.810;6.418;2023-03-19T12:45:30;13.00;99.90
12115;DHT22;6121;49.810;6.418;2023-03-19T12:48:12;12.90;99.90
12115;DHT22;6121;49.810;6.418;2023-03-19T12:50:44;13.10;99.90
12115;DHT22;6121;49.810;6.418;2023-03-19T12:53:42;13.60;99.90
12115;DHT22;6121;49.810;6.418;2023-03-19T12:56:59;14.20;99.90
12115;DHT22;6121;49.810;6.418;2023-03-19T12:59:36;14.50;99.90
12115;DHT22;6121;49.810;6.418;2023-03-19T13:07:50;14.50;99.90
12115;DHT22;6121;49.810;6.418;2023-03-19T13:10:18;14.70;99.90
12115;DHT22;6121;49.810;6.418;2023-03-19T13:12:46;15.00;99.90
12115;DHT22;6121;49.810;6.418;2023-03-19T13:15:36;15.10;99.90
12115;DHT22;6121;49.810;6.418;2023-03-19T13:18:37;15.40;99.90
12115;DHT22;6121;49.810;6.418;2023-03-19T13:21:19;15.50;99.90
12115;DHT22;6121;49.810;6.418;2023-03-19T13:23:49;15.70;99.90
12115;DHT22;6121;49.810;6.418;2023-03-19T13:26:16;15.80;99.90
12115;DHT22;6121;49.810;6.418;2023-03-19T13:29:28;15.70;99.90
12115;DHT22;6121;49.810;6.418;2023-03-19T13:32:05;16.00;99.90
12115;DHT22;6121;49.810;6.418;2023-03-19T13:34:34;16.00;99.90
12115;DHT22;6121;49.810;6.418;2023-03-19T13:37:07;16.10;99.90
12115;DHT22;6121;49.810;6.418;2023-03-19T13:39:37;15.90;99.90
12115;DHT22;6121;49.810;6.418;2023-03-19T13:42:32;15.30;99.90
12115;DHT22;6121;49.810;6.418;2023-03-19T13:58:12;15.50;99.90
12115;DHT22;6121;49.810;6.418;2023-03-19T14:01:02;15.10;99.90
12115;DHT22;6121;49.810;6.418;2023-03-19T14:03:33;15.10;99.90
12115;DHT22;6121;49.810;6.418;2023-03-19T14:06:00;15.40;99.90
12115;DHT22;6121;49.810;6.418;2023-03-19T14:08:41;15.30;99.90
12115;DHT22;6121;49.810;6.418;2023-03-19T14:11:08;15.30;99.90
12115;DHT22;6121;49.810;6.418;2023-03-19T14:13:48;15.10;99.90
12115;DHT22;6121;49.810;6.418;2023-03-19T14:16:35;15.20;99.90
12115;DHT22;6121;49.810;6.418;2023-03-19T14:19:10;15.00;99.90
12115;DHT22;6121;49.810;6.418;2023-03-19T14:22:07;14.90;99.90
12115;DHT22;6121;49.810;6.418;2023-03-19T14:27:01;14.80;99.90
12115;DHT22;6121;49.810;6.418;2023-03-19T14:29:28;14.50;99.90
12115;DHT22;6121;49.810;6.418;2023-03-19T14:31:58;14.60;99.90
12115;DHT22;6121;49.810;6.418;2023-03-19T14:34:37;14.70;99.90
12115;DHT22;6121;49.810;6.418;2023-03-19T14:37:28;14.60;99.90
12115;DHT22;6121;49.810;6.418;2023-03-19T14:42:52;14.80;99.90
12115;DHT22;6121;49.810;6.418;2023-03-19T14:54:29;14.70;99.90
12115;DHT22;6121;49.810;6.418;2023-03-19T14:56:56;14.80;99.90
12115;DHT22;6121;49.810;6.418;2023-03-19T14:59:22;14.80;99.90
12115;DHT22;6121;49.810;6.418;2023-03-19T15:01:51;14.70;99.90
12115;DHT22;6121;49.810;6.418;2023-03-19T15:04:21;14.70;99.90
12115;DHT22;6121;49.810;6.418;2023-03-19T15:06:53;14.50;99.90
12115;DHT22;6121;49.810;6.418;2023-03-19T15:09:26;14.40;99.90
12115;DHT22;6121;49.810;6.418;2023-03-19T15:14:33;14.50;99.90
12115;DHT22;6121;49.810;6.418;2023-03-19T15:17:22;14.60;99.90
12115;DHT22;6121;49.810;6.418;2023-03-19T15:19:49;14.70;99.90
12115;DHT22;6121;49.810;6.418;2023-03-19T15:22:22;14.80;99.90
12115;DHT22;6121;49.810;6.418;2023-03-19T15:24:50;14.90;99.90
12115;DHT22;6121;49.810;6.418;2023-03-19T15:27:21;14.90;99.90
12115;DHT22;6121;49.810;6.418;2023-03-19T15:29:48;14.90;99.90
12115;DHT22;6121;49.810;6.418;2023-03-19T15:32:36;14.80;99.90
12115;DHT22;6121;49.810;6.418;2023-03-19T15:35:04;14.50;99.90
12115;DHT22;6121;49.810;6.418;2023-03-19T15:37:40;14.40;99.90
12115;DHT22;6121;49.810;6.418;2023-03-19T15:40:13;14.30;99.90
12115;DHT22;6121;49.810;6.418;2023-03-19T15:42:41;14.20;99.90
12115;DHT22;6121;49.810;6.418;2023-03-19T15:45:13;14.20;99.90
12115;DHT22;6121;49.810;6.418;2023-03-19T15:48:03;14.30;99.90
12115;DHT22;6121;49.810;6.418;2023-03-19T15:50:34;14.40;99.90
12115;DHT22;6121;49.810;6.418;2023-03-19T15:53:05;14.20;99.90
12115;DHT22;6121;49.810;6.418;2023-03-19T15:55:34;14.30;99.90
12115;DHT22;6121;49.810;6.418;2023-03-19T15:58:15;14.40;99.90
12115;DHT22;6121;49.810;6.418;2023-03-19T16:00:42;14.40;99.90
12115;DHT22;6121;49.810;6.418;2023-03-19T16:03:15;14.40;99.90
12115;DHT22;6121;49.810;6.418;2023-03-19T16:05:42;14.50;99.90
12115;DHT22;6121;49.810;6.418;2023-03-19T16:08:16;14.60;99.90
12115;DHT22;6121;49.810;6.418;2023-03-19T16:10:43;14.70;99.90
12115;DHT22;6121;49.810;6.418;2023-03-19T16:13:39;14.50;99.90
12115;DHT22;6121;49.810;6.418;2023-03-19T16:16:18;14.50;99.90
12115;DHT22;6121;49.810;6.418;2023-03-19T16:18:48;14.60;99.90
12115;DHT22;6121;49.810;6.418;2023-03-19T16:21:34;14.50;99.90
12115;DHT22;6121;49.810;6.418;2023-03-19T16:29:27;14.20;99.90
12115;DHT22;6121;49.810;6.418;2023-03-19T16:32:01;14.00;99.90
12115;DHT22;6121;49.810;6.418;2023-03-19T16:34:49;14.10;99.90
12115;DHT22;6121;49.810;6.418;2023-03-19T16:39:57;14.20;99.90
12115;DHT22;6121;49.810;6.418;2023-03-19T16:45:24;13.90;99.90
12115;DHT22;6121;49.810;6.418;2023-03-19T16:47:53;13.80;99.90
12115;DHT22;6121;49.810;6.418;2023-03-19T16:50:21;13.80;99.90
12115;DHT22;6121;49.810;6.418;2023-03-19T16:52:48;13.80;99.90
12115;DHT22;6121;49.810;6.418;2023-03-19T16:55:29;13.70;99.90
12115;DHT22;6121;49.810;6.418;2023-03-19T16:57:58;13.70;99.90
12115;DHT22;6121;49.810;6.418;2023-03-19T17:00:26;13.70;99.90
12115;DHT22;6121;49.810;6.418;2023-03-19T17:02:53;13.70;99.90
12115;DHT22;6121;49.810;6.418;2023-03-19T17:05:23;13.60;99.90
12115;DHT22;6121;49.810;6.418;2023-03-19T17:07:49;13.70;99.90
12115;DHT22;6121;49.810;6.418;2023-03-19T17:10:17;13.60;99.90
12115;DHT22;6121;49.810;6.418;2023-03-19T17:12:46;13.30;99.90
12115;DHT22;6121;49.810;6.418;2023-03-19T17:15:30;13.20;99.90
12115;DHT22;6121;49.810;6.418;2023-03-19T17:17:56;13.10;99.90
12115;DHT22;6121;49.810;6.418;2023-03-19T17:20:28;13.00;99.90
12115;DHT22;6121;49.810;6.418;2023-03-19T17:22:55;12.90;99.90
12115;DHT22;6121;49.810;6.418;2023-03-19T17:25:21;12.90;99.90
12115;DHT22;6121;49.810;6.418;2023-03-19T17:27:46;12.80;99.90
12115;DHT22;6121;49.810;6.418;2023-03-19T17:30:12;12.70;99.90
12115;DHT22;6121;49.810;6.418;2023-03-19T17:32:40;12.80;99.90
12115;DHT22;6121;49.810;6.418;2023-03-19T17:35:19;12.80;99.90
12115;DHT22;6121;49.810;6.418;2023-03-19T17:37:46;12.70;99.90
12115;DHT22;6121;49.810;6.418;2023-03-19T17:40:21;12.80;99.90
12115;DHT22;6121;49.810;6.418;2023-03-19T17:42:48;12.80;99.90
12115;DHT22;6121;49.810;6.418;2023-03-19T17:45:18;12.80;99.90
12115;DHT22;6121;49.810;6.418;2023-03-19T17:47:48;12.60;99.90
12115;DHT22;6121;49.810;6.418;2023-03-19T17:50:23;12.50;99.90
12115;DHT22;6121;49.810;6.418;2023-03-19T17:52:50;12.20;99.90
12115;DHT22;6121;49.810;6.418;2023-03-19T17:55:27;12.10;99.90
12115;DHT22;6121;49.810;6.418;2023-03-19T17:57:54;11.80;99.90
12115;DHT22;6121;49.810;6.418;2023-03-19T18:00:23;11.70;99.90
12115;DHT22;6121;49.810;6.418;2023-03-19T18:02:51;11.70;99.90